Time;durP1;ratioP1;P1;durP2;ratioP2;P2;SDS_P1;SDS_P2;PMS_P1;PMS_P2;Temp;Humidity;BMP_temperature;BMP_pressure;BME280_temperature;BME280_humidity;BME280_pressure;Samples;Min_cycle;Max_cycle;Signal;HPM_P1;HPM_P2
2021/07/12 00:00:30;;;;;;;13.28;8.93;;;;;;;19.77;100.00;100601.73;1740662;80;22101;-41
2021/07/12 00:02:57;;;;;;;12.93;8.50;;;;;;;19.72;100.00;100595.06;1760582;80;21564;-40
2021/07/12 00:05:24;;;;;;;16.15;9.85;;;;;;;19.78;100.00;100597.34;1775232;80;20900;-40
2021/07/12 00:07:51;;;;;;;16.75;10.00;;;;;;;19.79;100.00;100594.62;1758321;80;20924;-41
2021/07/12 00:10:23;;;;;;;12.73;9.53;;;;;;;19.79;100.00;100595.92;1760653;80;22127;-40
2021/07/12 00:12:51;;;;;;;12.35;10.00;;;;;;;19.84;100.00;100601.42;1695000;82;20952;-40
2021/07/12 00:15:21;;;;;;;17.12;8.90;;;;;;;19.86;100.00;100598.23;1770722;80;20951;-40
2021/07/12 00:17:48;;;;;;;13.28;9.70;;;;;;;19.85;100.00;100595.23;1752928;80;21493;-40
2021/07/12 00:20:16;;;;;;;13.10;9.48;;;;;;;19.89;100.00;100596.75;1741329;82;21233;-40
2021/07/12 00:22:44;;;;;;;15.45;9.35;;;;;;;19.89;100.00;100595.44;1711119;83;20992;-40
2021/07/12 00:25:12;;;;;;;14.38;9.80;;;;;;;19.88;100.00;100597.20;1757625;80;20904;-40
2021/07/12 00:27:39;;;;;;;13.72;9.73;;;;;;;19.87;100.00;100592.88;1750315;80;20943;-40
2021/07/12 00:30:08;;;;;;;14.13;9.75;;;;;;;19.84;100.00;100594.85;1737124;82;21019;-40
2021/07/12 00:32:36;;;;;;;16.60;10.10;;;;;;;19.80;100.00;100591.05;1679724;84;21008;-39
2021/07/12 00:35:07;;;;;;;21.70;10.40;;;;;;;19.74;100.00;100586.63;1750316;80;21030;-40
2021/07/12 00:37:35;;;;;;;19.62;9.83;;;;;;;19.68;100.00;100591.27;1755270;80;20923;-41
2021/07/12 00:40:06;;;;;;;22.77;11.08;;;;;;;19.67;100.00;100597.93;1776348;80;20939;-40
2021/07/12 00:42:33;;;;;;;12.80;10.05;;;;;;;19.69;100.00;100593.44;1767458;80;20908;-40
2021/07/12 00:45:02;;;;;;;15.53;9.98;;;;;;;19.71;100.00;100592.89;1773496;80;20991;-41
2021/07/12 00:47:29;;;;;;;12.15;9.70;;;;;;;19.68;100.00;100587.33;1704417;82;20969;-41
2021/07/12 00:49:55;;;;;;;13.80;9.73;;;;;;;19.65;100.00;100603.25;1695323;83;21585;-41
2021/07/12 00:52:22;;;;;;;19.75;9.08;;;;;;;19.60;100.00;100607.91;1702956;83;21698;-40
2021/07/12 00:54:48;;;;;;;12.33;9.45;;;;;;;19.51;100.00;100596.13;1697736;83;21573;-41
2021/07/12 00:57:17;;;;;;;18.48;8.60;;;;;;;19.42;100.00;100598.39;1676089;84;21003;-40
2021/07/12 00:59:44;;;;;;;15.38;9.20;;;;;;;19.34;100.00;100597.52;1689805;84;20987;-41
2021/07/12 01:02:11;;;;;;;18.87;9.58;;;;;;;19.27;100.00;100596.98;1705313;83;21885;-40
2021/07/12 01:04:39;;;;;;;13.90;9.28;;;;;;;19.21;100.00;100596.83;1716029;83;20976;-40
2021/07/12 01:07:10;;;;;;;20.77;9.98;;;;;;;19.16;100.00;100594.05;1688258;83;21155;-40
2021/07/12 01:09:37;;;;;;;18.73;9.55;;;;;;;19.09;100.00;100594.38;1727747;82;21430;-40
2021/07/12 01:12:15;;;;;;;10.98;9.85;;;;;;;19.03;100.00;100588.16;1718639;83;20972;-40
2021/07/12 01:14:50;;;;;;;15.72;9.63;;;;;;;18.99;100.00;100597.11;1706511;82;21055;-40
2021/07/12 01:18:14;;;;;;;17.52;9.23;;;;;;;18.96;100.00;100591.52;1710922;83;20944;-40
2021/07/12 01:21:16;;;;;;;17.40;10.13;;;;;;;18.92;100.00;100591.75;1700862;84;21043;-40
2021/07/12 01:24:26;;;;;;;30.68;11.25;;;;;;;18.91;100.00;100594.84;1702119;83;21035;-40
2021/07/12 01:27:04;;;;;;;18.60;9.85;;;;;;;18.92;100.00;100597.85;1707698;82;21385;-40
2021/07/12 01:30:19;;;;;;;18.95;10.53;;;;;;;18.93;100.00;100601.31;1708417;82;21168;-41
2021/07/12 01:33:17;;;;;;;16.20;10.50;;;;;;;18.89;100.00;100600.63;1684642;84;20944;-41
2021/07/12 01:36:02;;;;;;;17.12;11.25;;;;;;;18.85;100.00;100600.41;1722742;82;21027;-40
2021/07/12 01:38:46;;;;;;;19.20;10.72;;;;;;;18.83;100.00;100602.27;1731643;82;21034;-41
2021/07/12 01:41:33;;;;;;;14.20;10.40;;;;;;;18.83;100.00;100603.58;1722535;82;21490;-41
2021/07/12 01:44:33;;;;;;;16.62;10.60;;;;;;;18.81;100.00;100604.09;1722740;82;21070;-40
2021/07/12 01:47:07;;;;;;;20.12;10.10;;;;;;;18.80;100.00;100597.16;1726649;82;21031;-40
2021/07/12 01:49:42;;;;;;;22.07;10.72;;;;;;;18.76;100.00;100603.03;1703381;82;21050;-40
2021/07/12 01:52:25;;;;;;;21.33;11.28;;;;;;;18.76;100.00;100610.03;1735789;82;21007;-41
2021/07/12 01:55:02;;;;;;;15.10;11.08;;;;;;;18.77;100.00;100615.66;1727874;81;21115;-40
2021/07/12 01:57:33;;;;;;;18.90;10.80;;;;;;;18.75;100.00;100612.27;1728605;82;21065;-40
2021/07/12 02:00:11;;;;;;;15.98;10.82;;;;;;;18.74;100.00;100613.20;1705378;83;20987;-41
2021/07/12 02:02:50;;;;;;;18.77;10.45;;;;;;;18.73;100.00;100611.06;1703176;82;21027;-40
2021/07/12 02:05:21;;;;;;;11.97;9.63;;;;;;;18.75;100.00;100617.52;1715618;83;21031;-40
2021/07/12 02:07:49;;;;;;;18.90;10.53;;;;;;;18.75;100.00;100618.83;1696250;82;21558;-40
2021/07/12 02:10:21;;;;;;;18.37;10.78;;;;;;;18.75;100.00;100621.00;1712281;82;21123;-40
2021/07/12 02:12:51;;;;;;;19.05;11.15;;;;;;;18.76;100.00;100616.59;1683174;83;21110;-41
2021/07/12 02:15:18;;;;;;;22.77;11.05;;;;;;;18.77;100.00;100624.84;1696984;83;21541;-42
2021/07/12 02:17:47;;;;;;;16.05;9.83;;;;;;;18.79;100.00;100628.23;1746242;82;21035;-42
2021/07/12 02:20:16;;;;;;;21.10;11.20;;;;;;;18.81;100.00;100632.94;1732125;82;21005;-42
2021/07/12 02:22:43;;;;;;;14.80;10.75;;;;;;;18.82;100.00;100637.28;1721860;82;21094;-42
2021/07/12 02:25:17;;;;;;;14.03;10.43;;;;;;;18.82;100.00;100630.73;1729967;82;21044;-42
2021/07/12 02:27:45;;;;;;;16.62;10.60;;;;;;;18.84;100.00;100639.36;1721456;81;21035;-42
2021/07/12 02:30:12;;;;;;;29.20;11.48;;;;;;;18.85;100.00;100634.50;1711866;82;21026;-42
2021/07/12 02:32:39;;;;;;;14.15;10.72;;;;;;;18.88;100.00;100643.97;1749004;82;21557;-42
2021/07/12 02:35:09;;;;;;;19.87;11.75;;;;;;;18.90;100.00;100641.67;1727516;82;21186;-42
2021/07/12 02:37:37;;;;;;;18.42;11.25;;;;;;;18.92;100.00;100637.19;1697882;82;21007;-42
2021/07/12 02:40:09;;;;;;;22.20;11.85;;;;;;;18.95;100.00;100640.97;1731809;82;20960;-41
2021/07/12 02:42:37;;;;;;;26.52;11.45;;;;;;;18.98;100.00;100637.80;1673917;83;21023;-42
2021/07/12 02:45:06;;;;;;;28.75;11.68;;;;;;;19.01;100.00;100636.36;1725041;82;21505;-42
2021/07/12 02:47:35;;;;;;;19.20;11.10;;;;;;;19.04;100.00;100634.89;1683401;82;21007;-41
2021/07/12 02:50:06;;;;;;;20.70;11.12;;;;;;;19.07;100.00;100634.73;1739540;82;21078;-41
2021/07/12 02:52:42;;;;;;;15.50;10.70;;;;;;;19.10;100.00;100621.00;1727878;82;21032;-41
2021/07/12 02:55:10;;;;;;;19.90;10.72;;;;;;;19.16;100.00;100628.16;1741182;82;20983;-41
2021/07/12 02:57:37;;;;;;;23.00;11.22;;;;;;;19.20;100.00;100626.63;1723229;82;21031;-41
2021/07/12 03:00:09;;;;;;;19.87;11.35;;;;;;;19.26;100.00;100627.22;1731217;82;21925;-41
2021/07/12 03:02:37;;;;;;;12.25;10.85;;;;;;;19.32;99.92;100622.95;1746931;82;21023;-41
2021/07/12 03:05:07;;;;;;;24.70;14.53;;;;;;;19.38;99.71;100621.34;1729001;82;21046;-41
2021/07/12 03:07:42;;;;;;;23.30;13.95;;;;;;;19.44;99.47;100623.63;1724431;82;20976;-41
2021/07/12 03:10:13;;;;;;;26.02;16.85;;;;;;;19.50;99.20;100624.61;1740976;82;20972;-41
2021/07/12 03:12:48;;;;;;;34.27;18.52;;;;;;;19.57;99.02;100629.08;1733203;82;21905;-40
2021/07/12 03:15:18;;;;;;;26.87;17.00;;;;;;;19.64;98.72;100625.19;1730033;82;21010;-40
2021/07/12 03:17:51;;;;;;;21.00;15.00;;;;;;;19.72;98.36;100623.46;1736097;82;21011;-40
2021/07/12 03:20:17;;;;;;;25.95;15.00;;;;;;;19.82;97.78;100629.89;1738892;82;21564;-40
2021/07/12 03:22:51;;;;;;;26.60;11.78;;;;;;;19.91;97.21;100627.75;1710503;82;21695;-39
2021/07/12 03:25:22;;;;;;;23.12;10.75;;;;;;;19.99;96.65;100626.84;1705994;82;22278;-40
2021/07/12 03:27:53;;;;;;;21.80;11.22;;;;;;;20.06;95.83;100612.43;1702110;83;20960;-39
2021/07/12 03:30:20;;;;;;;17.90;11.03;;;;;;;20.16;95.25;100619.81;1723985;82;21012;-40
2021/07/12 03:32:49;;;;;;;16.05;11.05;;;;;;;20.26;94.97;100616.20;1706488;83;21075;-40
2021/07/12 03:35:15;;;;;;;18.32;11.25;;;;;;;20.34;94.43;100616.61;1725512;82;21524;-40
2021/07/12 03:37:42;;;;;;;22.45;13.95;;;;;;;20.44;93.95;100614.30;1724132;82;21101;-39
2021/07/12 03:40:12;;;;;;;20.25;12.55;;;;;;;20.55;93.33;100608.42;1708148;82;21050;-40
2021/07/12 03:42:39;;;;;;;30.62;13.35;;;;;;;20.64;92.63;100607.42;1685870;84;20999;-40
2021/07/12 03:45:08;;;;;;;26.35;12.98;;;;;;;20.78;92.43;100607.06;1751686;80;20987;-41
2021/07/12 03:47:38;;;;;;;25.08;12.85;;;;;;;20.90;92.12;100607.70;1745890;80;20935;-40
2021/07/12 03:50:11;;;;;;;23.40;12.55;;;;;;;21.06;91.72;100600.18;1758852;80;21122;-40
2021/07/12 03:52:51;;;;;;;19.95;12.30;;;;;;;21.23;90.88;100598.70;1752653;80;21042;-41
2021/07/12 03:55:21;;;;;;;22.07;11.93;;;;;;;21.49;90.37;100598.05;1761108;80;20975;-41
2021/07/12 03:57:48;;;;;;;19.23;11.18;;;;;;;21.77;89.47;100601.60;1760785;80;21602;-40
2021/07/12 04:00:19;;;;;;;19.12;10.32;;;;;;;22.01;88.29;100595.70;1753607;79;20962;-40
2021/07/12 04:02:47;;;;;;;35.78;10.93;;;;;;;22.21;87.31;100595.72;1758059;80;21760;-40
2021/07/12 04:05:14;;;;;;;52.98;12.07;;;;;;;22.47;86.52;100593.19;1753211;80;21521;-40
2021/07/12 04:07:40;;;;;;;74.77;12.53;;;;;;;22.73;85.64;100587.46;1754839;80;21026;-39
2021/07/12 04:10:10;;;;;;;73.12;14.18;;;;;;;23.04;84.09;100588.48;1761372;80;21006;-41
2021/07/12 04:12:38;;;;;;;95.87;14.95;;;;;;;23.30;82.52;100585.85;1748385;80;21023;-41
2021/07/12 04:15:05;;;;;;;108.85;16.40;;;;;;;23.58;80.70;100584.75;1748314;80;21806;-40
2021/07/12 04:17:32;;;;;;;127.58;15.50;;;;;;;23.87;79.90;100586.23;1754082;80;21777;-40
2021/07/12 04:19:59;;;;;;;100.02;14.20;;;;;;;24.15;78.35;100589.05;1751660;80;21010;-40
2021/07/12 04:22:25;;;;;;;106.65;13.78;;;;;;;24.44;76.37;100585.20;1768492;80;20892;-40
2021/07/12 04:24:53;;;;;;;115.00;14.63;;;;;;;24.71;74.19;100582.25;1768421;80;21002;-41
2021/07/12 04:27:20;;;;;;;122.58;15.88;;;;;;;24.94;74.01;100583.64;1764777;80;21121;-40
2021/07/12 04:29:46;;;;;;;84.87;12.98;;;;;;;25.18;73.28;100583.55;1779599;80;21489;-40
2021/07/12 04:32:13;;;;;;;74.47;12.90;;;;;;;25.43;71.59;100584.26;1775987;80;21631;-40
2021/07/12 04:34:39;;;;;;;100.38;12.05;;;;;;;25.70;70.70;100584.36;1753014;80;20971;-40
2021/07/12 04:37:08;;;;;;;84.60;11.83;;;;;;;25.94;69.61;100584.66;1758010;80;20967;-40
2021/07/12 04:39:34;;;;;;;83.03;12.70;;;;;;;26.19;69.26;100585.33;1772144;80;21057;-41
2021/07/12 04:42:01;;;;;;;60.25;11.08;;;;;;;26.45;67.67;100584.47;1766535;80;20962;-41
2021/07/12 04:44:28;;;;;;;46.83;10.40;;;;;;;26.71;66.93;100580.59;1768753;80;21018;-40
2021/07/12 04:46:57;;;;;;;41.20;9.95;;;;;;;26.92;65.78;100578.79;1756954;80;20939;-40
2021/07/12 04:49:24;;;;;;;50.10;9.05;;;;;;;27.08;65.64;100572.98;1768360;80;20967;-40
2021/07/12 04:51:51;;;;;;;40.73;9.50;;;;;;;27.33;65.20;100573.50;1757036;80;21548;-40
2021/07/12 04:54:18;;;;;;;25.77;8.85;;;;;;;27.53;63.99;100569.56;1719603;82;21513;-40
2021/07/12 04:56:44;;;;;;;19.77;7.75;;;;;;;27.71;64.08;100568.44;1705617;83;21008;-40
2021/07/12 04:59:12;;;;;;;23.77;7.92;;;;;;;27.90;63.00;100578.72;1727475;82;21055;-40
2021/07/12 05:01:39;;;;;;;30.55;8.73;;;;;;;28.09;63.46;100584.56;1681711;84;21087;-40
2021/07/12 05:04:06;;;;;;;35.75;9.98;;;;;;;28.32;63.14;100575.81;1701297;83;21145;-41
2021/07/12 05:06:34;;;;;;;32.00;8.38;;;;;;;28.51;61.28;100581.59;1706677;83;21486;-41
2021/07/12 05:09:01;;;;;;;47.90;10.68;;;;;;;28.59;60.77;100584.88;1717621;83;21056;-40
2021/07/12 05:11:29;;;;;;;34.75;9.40;;;;;;;28.66;60.10;100587.30;1710394;82;21883;-40
2021/07/12 05:13:56;;;;;;;32.58;8.65;;;;;;;28.87;59.85;100592.14;1707808;82;21530;-40
2021/07/12 05:16:24;;;;;;;27.75;8.70;;;;;;;29.14;59.52;100593.16;1705986;83;21192;-40
2021/07/12 05:18:50;;;;;;;20.32;7.22;;;;;;;29.36;59.42;100586.12;1703909;82;21004;-40
2021/07/12 05:21:17;;;;;;;16.55;7.00;;;;;;;29.62;58.57;100587.25;1701696;83;21039;-40
2021/07/12 05:23:43;;;;;;;13.08;7.42;;;;;;;29.82;57.27;100584.80;1710588;83;21537;-41
2021/07/12 05:26:11;;;;;;;17.98;8.05;;;;;;;30.03;56.15;100590.84;1718250;82;21027;-40
2021/07/12 05:28:40;;;;;;;22.27;7.45;;;;;;;30.19;56.43;100595.48;1696471;82;20975;-40
2021/07/12 05:31:06;;;;;;;17.67;7.70;;;;;;;30.32;56.63;100595.95;1719851;82;21008;-40
2021/07/12 05:33:32;;;;;;;10.05;6.95;;;;;;;30.51;55.50;100598.91;1702389;82;20936;-40
2021/07/12 05:35:59;;;;;;;15.32;7.28;;;;;;;30.62;55.46;100585.02;1697567;84;20991;-41
2021/07/12 05:38:26;;;;;;;28.73;7.05;;;;;;;30.81;54.81;100593.30;1707377;83;21007;-41
2021/07/12 05:40:52;;;;;;;12.25;6.87;;;;;;;31.06;53.89;100601.45;1755350;79;21123;-40
2021/07/12 05:43:19;;;;;;;13.55;6.78;;;;;;;31.22;53.15;100597.56;1732128;82;20995;-41
2021/07/12 05:45:45;;;;;;;18.00;6.90;;;;;;;31.39;51.75;100601.61;1738830;81;21019;-41
2021/07/12 05:48:12;;;;;;;15.53;7.47;;;;;;;31.51;50.92;100601.67;1702093;83;20956;-41
2021/07/12 05:53:05;;;;;;;13.38;7.37;;;;;;;31.56;49.60;100592.31;1796481;79;22516;-41
2021/07/12 05:55:32;;;;;;;21.35;7.40;;;;;;;31.47;50.21;100594.97;1754961;81;21066;-40
2021/07/12 05:57:59;;;;;;;16.87;7.50;;;;;;;31.48;50.58;100588.63;1753033;80;21548;-42
2021/07/12 06:00:25;;;;;;;14.78;6.67;;;;;;;31.63;49.83;100586.64;1748355;81;20932;-40
2021/07/12 06:02:52;;;;;;;11.33;6.97;;;;;;;31.68;48.17;100595.85;1735324;81;21068;-40
2021/07/12 06:05:18;;;;;;;13.72;6.60;;;;;;;31.74;48.37;100597.05;1724744;83;20943;-40
2021/07/12 06:07:47;;;;;;;11.93;6.00;;;;;;;31.81;48.14;100598.56;1728472;82;20964;-40
2021/07/12 06:10:14;;;;;;;17.37;6.37;;;;;;;31.91;48.50;100603.77;1727457;81;21047;-42
2021/07/12 06:12:41;;;;;;;11.68;5.85;;;;;;;32.01;47.83;100598.27;1726505;82;20995;-41
2021/07/12 06:15:09;;;;;;;9.60;6.50;;;;;;;32.08;47.21;100597.44;1724750;83;20962;-41
2021/07/12 06:17:35;;;;;;;13.55;6.75;;;;;;;32.04;46.94;100602.80;1727446;81;20958;-42
2021/07/12 06:20:06;;;;;;;14.87;6.70;;;;;;;31.93;46.57;100599.09;1726639;82;21026;-41
2021/07/12 06:22:33;;;;;;;12.40;6.47;;;;;;;31.78;47.55;100612.28;1724267;82;21140;-41
2021/07/12 06:24:59;;;;;;;13.43;6.17;;;;;;;31.66;46.57;100605.88;1726786;83;21030;-41
2021/07/12 06:27:26;;;;;;;11.88;6.30;;;;;;;31.50;46.36;100608.02;1725676;82;21046;-41
2021/07/12 06:29:53;;;;;;;11.78;6.70;;;;;;;31.32;46.83;100611.28;1724153;83;20919;-41
2021/07/12 06:32:19;;;;;;;10.63;6.30;;;;;;;31.20;46.29;100614.26;1722587;83;21030;-41
2021/07/12 06:34:46;;;;;;;8.58;6.37;;;;;;;31.12;47.99;100620.84;1727407;82;21183;-41
2021/07/12 06:37:12;;;;;;;11.83;6.45;;;;;;;31.13;47.14;100621.70;1731993;82;20963;-41
2021/07/12 06:39:39;;;;;;;18.98;6.67;;;;;;;31.03;47.46;100619.14;1723793;83;20971;-41
2021/07/12 06:42:06;;;;;;;13.93;7.20;;;;;;;31.05;48.00;100617.97;1725329;82;21002;-41
2021/07/12 06:44:33;;;;;;;15.18;7.30;;;;;;;31.21;48.39;100617.27;1725804;81;21005;-41
2021/07/12 06:46:59;;;;;;;11.25;7.58;;;;;;;31.29;48.45;100616.44;1724687;82;21049;-41
2021/07/12 06:49:27;;;;;;;11.18;8.03;;;;;;;31.42;48.32;100616.50;1724744;83;21575;-41
2021/07/12 06:51:53;;;;;;;12.65;7.67;;;;;;;31.46;48.20;100614.69;1727219;82;21039;-41
2021/07/12 06:54:20;;;;;;;8.95;7.08;;;;;;;31.55;48.10;100616.87;1709519;83;21730;-40
2021/07/12 06:56:47;;;;;;;12.73;7.55;;;;;;;31.44;49.12;100616.66;1732664;82;21572;-40
2021/07/12 06:59:13;;;;;;;10.58;7.87;;;;;;;31.50;48.65;100617.86;1725892;83;21774;-41
2021/07/12 07:01:42;;;;;;;13.70;8.15;;;;;;;31.58;47.69;100613.04;1726440;83;20987;-43
2021/07/12 07:04:08;;;;;;;11.53;7.67;;;;;;;31.48;48.58;100618.52;1727857;82;21011;-42
2021/07/12 07:06:35;;;;;;;12.03;6.83;;;;;;;31.48;48.24;100614.03;1726799;82;21066;-42
2021/07/12 07:09:01;;;;;;;12.15;7.75;;;;;;;31.55;48.28;100614.19;1722899;82;21470;-42
2021/07/12 07:11:30;;;;;;;10.48;7.30;;;;;;;31.57;48.11;100608.17;1723506;82;21873;-42
2021/07/12 07:13:56;;;;;;;10.72;7.05;;;;;;;31.61;48.66;100610.03;1724677;81;20979;-41
2021/07/12 07:16:22;;;;;;;8.83;7.40;;;;;;;31.65;47.67;100612.23;1725294;83;21030;-42
2021/07/12 07:18:51;;;;;;;9.30;7.22;;;;;;;31.53;48.25;100610.84;1725638;82;21473;-41
2021/07/12 07:21:19;;;;;;;8.08;6.95;;;;;;;31.52;48.36;100613.19;1722735;82;21030;-40
2021/07/12 07:23:46;;;;;;;13.53;10.25;;;;;;;31.69;48.02;100612.72;1722333;83;21210;-41
2021/07/12 07:26:13;;;;;;;10.50;8.10;;;;;;;31.76;47.90;100615.13;1723202;83;21564;-40
2021/07/12 07:28:40;;;;;;;10.70;8.70;;;;;;;31.88;48.12;100617.48;1739925;82;20988;-41
2021/07/12 07:31:06;;;;;;;14.28;9.45;;;;;;;31.90;47.91;100616.33;1731727;82;20950;-41
2021/07/12 07:33:32;;;;;;;41.45;24.27;;;;;;;31.98;47.92;100617.33;1722745;81;20929;-41
2021/07/12 07:35:59;;;;;;;21.77;7.28;;;;;;;32.09;46.93;100617.84;1725315;82;21071;-42
2021/07/12 07:38:26;;;;;;;14.78;6.70;;;;;;;32.17;46.51;100620.19;1727238;82;21018;-42
2021/07/12 07:40:53;;;;;;;8.23;6.58;;;;;;;32.30;46.56;100622.36;1726480;82;20979;-42
2021/07/12 07:43:20;;;;;;;8.33;6.65;;;;;;;32.46;47.11;100623.73;1723818;83;20955;-40
2021/07/12 07:45:46;;;;;;;7.55;6.85;;;;;;;32.67;44.33;100621.03;1728793;82;20944;-41
2021/07/12 07:48:13;;;;;;;10.50;6.75;;;;;;;32.62;45.90;100623.39;1723613;81;21106;-41
2021/07/12 07:50:42;;;;;;;12.18;8.63;;;;;;;32.35;45.29;100627.59;1725274;82;21008;-42
2021/07/12 07:53:09;;;;;;;13.48;6.40;;;;;;;32.34;47.03;100627.77;1703234;83;20991;-43
2021/07/12 07:55:36;;;;;;;11.63;6.70;;;;;;;32.23;47.83;100626.23;1713204;82;21718;-43
2021/07/12 07:58:05;;;;;;;7.22;6.53;;;;;;;32.20;47.11;100631.89;1705700;82;21031;-43
2021/07/12 08:00:32;;;;;;;8.75;7.03;;;;;;;32.20;48.71;100631.89;1671768;83;21181;-41
2021/07/12 08:02:59;;;;;;;7.22;6.58;;;;;;;32.22;47.35;100634.75;1716078;82;21030;-42
2021/07/12 08:05:25;;;;;;;7.53;6.40;;;;;;;32.31;48.25;100623.55;1708071;82;21643;-42
2021/07/12 08:07:52;;;;;;;7.55;6.35;;;;;;;32.48;48.57;100623.58;1721184;82;21277;-42
2021/07/12 08:10:18;;;;;;;7.30;6.62;;;;;;;32.68;48.19;100624.05;1703984;83;21008;-41
2021/07/12 08:12:46;;;;;;;10.88;6.28;;;;;;;32.88;46.84;100625.05;1725872;82;21131;-41
2021/07/12 08:15:13;;;;;;;10.72;6.37;;;;;;;33.02;46.36;100625.66;1711372;83;21535;-41
2021/07/12 08:17:40;;;;;;;9.55;6.28;;;;;;;33.14;46.79;100623.45;1711033;82;21027;-42
2021/07/12 08:20:08;;;;;;;7.22;6.37;;;;;;;33.29;45.09;100623.55;1710121;82;21082;-40
2021/07/12 08:22:36;;;;;;;6.78;6.17;;;;;;;33.22;45.53;100627.45;1707557;82;20905;-41
2021/07/12 08:25:07;;;;;;;7.03;6.05;;;;;;;33.14;45.49;100622.10;1686756;83;21052;-41
2021/07/12 08:27:34;;;;;;;6.37;5.75;;;;;;;33.11;46.16;100618.44;1665122;85;20983;-41
2021/07/12 08:30:05;;;;;;;9.63;6.78;;;;;;;33.01;45.58;100620.48;1678945;85;21050;-41
2021/07/12 08:32:31;;;;;;;7.25;6.25;;;;;;;32.86;45.81;100619.00;1719696;82;21008;-40
2021/07/12 08:34:58;;;;;;;8.35;6.08;;;;;;;32.76;46.80;100617.33;1713063;82;20996;-41
2021/07/12 08:37:24;;;;;;;10.88;6.12;;;;;;;32.64;47.57;100612.00;1711660;83;21175;-41
2021/07/12 08:39:51;;;;;;;17.00;6.42;;;;;;;32.77;45.81;100608.28;1716211;81;21623;-42
2021/07/12 08:42:19;;;;;;;11.97;6.97;;;;;;;32.72;45.48;100610.64;1680214;82;21031;-41
2021/07/12 08:44:46;;;;;;;8.70;6.28;;;;;;;32.67;46.61;100608.98;1713420;82;20913;-40
2021/07/12 08:47:13;;;;;;;6.58;6.17;;;;;;;32.87;46.55;100609.42;1710127;82;20984;-40
2021/07/12 08:49:39;;;;;;;9.83;6.65;;;;;;;33.05;46.71;100600.37;1698753;83;21050;-41
2021/07/12 08:52:06;;;;;;;7.95;6.50;;;;;;;33.24;46.66;100605.33;1716698;82;21034;-41
2021/07/12 08:54:33;;;;;;;12.03;6.80;;;;;;;33.10;46.69;100600.19;1687466;82;21087;-43
2021/07/12 08:57:00;;;;;;;9.15;6.58;;;;;;;32.87;46.34;100603.25;1735268;82;21007;-41
2021/07/12 08:59:36;;;;;;;7.45;6.75;;;;;;;32.72;46.39;100599.10;1731475;82;20944;-41
2021/07/12 09:02:07;;;;;;;45.15;8.05;;;;;;;32.75;46.14;100598.23;1726492;83;21864;-42
2021/07/12 09:04:38;;;;;;;13.60;6.53;;;;;;;32.73;46.40;100594.90;1732854;82;20924;-41
2021/07/12 09:07:07;;;;;;;9.43;6.92;;;;;;;32.67;47.39;100589.71;1728258;81;20964;-41
2021/07/12 09:09:34;;;;;;;8.03;6.45;;;;;;;32.87;46.62;100587.17;1725761;82;20983;-42
2021/07/12 09:12:14;;;;;;;19.60;7.08;;;;;;;33.11;46.52;100587.61;1725391;82;20948;-41
2021/07/12 09:15:04;;;;;;;12.47;6.30;;;;;;;33.31;44.76;100585.33;1733419;82;20943;-41
2021/07/12 09:17:32;;;;;;;14.87;6.78;;;;;;;33.59;44.61;100579.50;1728885;82;21600;-41
2021/07/12 09:19:59;;;;;;;10.35;6.58;;;;;;;33.75;43.05;100581.76;1733289;81;20991;-41
2021/07/12 09:22:39;;;;;;;9.93;6.60;;;;;;;33.83;42.08;100574.98;1721309;83;20979;-42
2021/07/12 09:25:11;;;;;;;17.37;6.60;;;;;;;33.85;42.68;100566.24;1715500;81;21003;-42
2021/07/12 09:27:39;;;;;;;18.23;6.25;;;;;;;34.07;42.45;100565.10;1725674;83;21138;-41
2021/07/12 09:30:13;;;;;;;42.23;8.63;;;;;;;34.14;41.14;100562.53;1724911;82;20968;-41
2021/07/12 09:32:42;;;;;;;8.38;6.60;;;;;;;33.96;41.40;100555.63;1723206;83;20951;-40
2021/07/12 09:35:14;;;;;;;14.47;7.08;;;;;;;33.61;42.07;100564.09;1725812;82;21569;-41
2021/07/12 09:37:43;;;;;;;12.13;7.80;;;;;;;33.21;43.24;100560.59;1724479;82;20966;-41
2021/07/12 09:40:13;;;;;;;16.85;6.83;;;;;;;32.89;44.10;100553.84;1689570;83;21060;-41
2021/07/12 09:42:44;;;;;;;12.70;6.33;;;;;;;32.83;43.44;100550.50;1648435;85;21027;-41
2021/07/12 09:45:12;;;;;;;11.22;6.97;;;;;;;32.70;43.05;100550.19;1677283;85;21016;-41
2021/07/12 09:47:44;;;;;;;14.98;5.70;;;;;;;32.46;43.51;100544.73;1677198;85;20976;-42
2021/07/12 09:50:18;;;;;;;13.60;6.55;;;;;;;32.25;43.29;100548.75;1679563;85;21026;-40
2021/07/12 09:52:52;;;;;;;11.80;6.60;;;;;;;32.07;44.56;100542.24;1673703;84;20967;-40
2021/07/12 09:55:41;;;;;;;11.65;6.50;;;;;;;31.94;46.80;100545.91;1712117;82;20951;-41
2021/07/12 09:58:17;;;;;;;6.93;5.97;;;;;;;31.99;49.55;100545.41;1706981;83;21023;-41
2021/07/12 10:00:54;;;;;;;8.20;5.90;;;;;;;32.40;47.61;100538.73;1709927;82;20964;-41
2021/07/12 10:03:21;;;;;;;13.48;7.15;;;;;;;32.77;47.13;100539.14;1708607;82;20998;-41
2021/07/12 10:05:51;;;;;;;10.05;6.97;;;;;;;33.20;46.54;100536.95;1710448;83;21135;-41
2021/07/12 10:08:17;;;;;;;21.15;6.60;;;;;;;33.58;44.24;100532.75;1713306;82;21028;-42
2021/07/12 10:10:45;;;;;;;6.80;6.17;;;;;;;33.84;43.00;100531.03;1711343;82;21514;-41
2021/07/12 10:13:13;;;;;;;10.65;6.17;;;;;;;33.98;43.30;100536.18;1687934;82;20960;-41
2021/07/12 10:15:39;;;;;;;9.28;6.50;;;;;;;34.02;43.96;100529.42;1658270;85;21046;-41
2021/07/12 10:18:07;;;;;;;10.40;6.15;;;;;;;33.96;43.48;100539.03;1677911;85;21151;-41
2021/07/12 10:20:34;;;;;;;12.13;6.60;;;;;;;34.09;40.61;100536.22;1679246;85;21024;-41
2021/07/12 10:23:02;;;;;;;13.65;6.47;;;;;;;34.44;44.08;100534.38;1678229;85;21128;-41
2021/07/12 10:25:30;;;;;;;6.85;5.97;;;;;;;34.78;40.76;100531.70;1738993;82;20987;-42
2021/07/12 10:27:59;;;;;;;11.57;5.37;;;;;;;34.95;40.38;100533.13;1737169;82;21083;-42
2021/07/12 10:30:40;;;;;;;9.10;6.60;;;;;;;35.01;40.58;100516.80;1658306;85;21068;-41
2021/07/12 10:33:09;;;;;;;12.00;5.75;;;;;;;35.04;41.53;100517.77;1655586;85;21561;-41
2021/07/12 10:35:48;;;;;;;26.95;7.20;;;;;;;35.06;41.06;100511.69;1668197;85;21075;-42
2021/07/12 10:38:20;;;;;;;37.88;7.35;;;;;;;35.14;40.48;100510.75;1679647;83;20952;-41
2021/07/12 10:40:55;;;;;;;40.35;7.87;;;;;;;35.02;39.73;100513.62;1681941;83;21012;-41
2021/07/12 10:43:46;;;;;;;9.90;5.70;;;;;;;35.04;42.18;100512.92;1654105;85;21089;-41
2021/07/12 10:46:30;;;;;;;8.30;4.78;;;;;;;35.31;42.23;100510.52;1670187;85;21064;-41
2021/07/12 10:49:00;;;;;;;7.83;4.90;;;;;;;35.62;37.39;100514.29;1627808;87;21617;-41
2021/07/12 10:51:38;;;;;;;8.33;4.67;;;;;;;35.86;36.54;100510.02;1691086;82;21178;-41
2021/07/12 10:54:10;;;;;;;12.15;5.15;;;;;;;36.04;36.55;100518.98;1725466;82;21541;-41
2021/07/12 10:56:54;;;;;;;9.25;4.65;;;;;;;36.24;36.12;100520.47;1709450;82;21109;-42
2021/07/12 10:59:30;;;;;;;6.60;5.10;;;;;;;36.34;34.47;100510.70;1709328;83;20968;-41
2021/07/12 11:01:59;;;;;;;14.07;4.47;;;;;;;36.34;34.76;100509.34;1711262;82;21004;-40
2021/07/12 11:04:40;;;;;;;10.65;4.62;;;;;;;36.36;35.13;100502.75;1708766;83;20897;-40
2021/07/12 11:07:14;;;;;;;10.38;4.33;;;;;;;36.33;34.16;100495.06;1687235;83;20959;-41
2021/07/12 11:10:00;;;;;;;10.28;4.60;;;;;;;36.21;32.35;100506.91;1658623;85;20998;-40
2021/07/12 11:12:29;;;;;;;4.70;3.33;;;;;;;36.07;31.65;100514.06;1670986;85;21072;-41
2021/07/12 11:15:26;;;;;;;6.55;3.80;;;;;;;35.91;33.29;100509.77;1710796;82;21017;-41
2021/07/12 11:17:58;;;;;;;6.00;3.58;;;;;;;35.69;33.03;100511.63;1734080;82;20972;-40
2021/07/12 11:20:51;;;;;;;6.15;3.72;;;;;;;35.40;33.23;100506.67;1724131;82;20955;-41
2021/07/12 11:23:53;;;;;;;52.55;4.20;;;;;;;35.12;34.13;100505.26;1688741;83;21085;-42
2021/07/12 11:26:30;;;;;;;4.50;4.10;;;;;;;34.90;31.25;100509.20;1705477;83;20989;-42
2021/07/12 11:29:13;;;;;;;8.75;3.60;;;;;;;34.71;33.00;100506.56;1699657;83;21616;-40
2021/07/12 11:32:06;;;;;;;9.50;3.80;;;;;;;34.55;34.94;100513.82;1693837;83;20980;-40